sensor_id;sensor_type;location;lat;lon;timestamp;P1;durP1;ratioP1;P2;durP2;ratioP2
72895;SDS011;61036;53.224;6.554;2023-06-01T00:01:52;10.30;;;5.23;;
72895;SDS011;61036;53.224;6.554;2023-06-01T00:04:18;9.50;;;4.83;;
72895;SDS011;61036;53.224;6.554;2023-06-01T00:06:43;12.93;;;5.30;;
72895;SDS011;61036;53.224;6.554;2023-06-01T00:09:09;13.83;;;5.53;;
72895;SDS011;61036;53.224;6.554;2023-06-01T00:11:35;11.63;;;5.13;;
72895;SDS011;61036;53.224;6.554;2023-06-01T00:14:01;12.20;;;5.17;;
72895;SDS011;61036;53.224;6.554;2023-06-01T00:16:27;12.90;;;5.93;;
72895;SDS011;61036;53.224;6.554;2023-06-01T00:18:55;10.57;;;4.30;;
72895;SDS011;61036;53.224;6.554;2023-06-01T00:21:22;11.83;;;5.63;;
72895;SDS011;61036;53.224;6.554;2023-06-01T00:23:48;11.97;;;5.33;;
72895;SDS011;61036;53.224;6.554;2023-06-01T00:26:14;10.33;;;5.53;;
72895;SDS011;61036;53.224;6.554;2023-06-01T00:28:44;13.30;;;5.07;;
72895;SDS011;61036;53.224;6.554;2023-06-01T00:31:09;9.47;;;4.60;;
72895;SDS011;61036;53.224;6.554;2023-06-01T00:33:35;13.50;;;4.83;;
72895;SDS011;61036;53.224;6.554;2023-06-01T00:36:00;13.90;;;5.87;;
72895;SDS011;61036;53.224;6.554;2023-06-01T00:38:26;9.20;;;5.37;;
72895;SDS011;61036;53.224;6.554;2023-06-01T00:40:51;12.87;;;5.07;;
72895;SDS011;61036;53.224;6.554;2023-06-01T00:43:17;10.13;;;5.53;;
72895;SDS011;61036;53.224;6.554;2023-06-01T00:45:43;13.33;;;5.50;;
72895;SDS011;61036;53.224;6.554;2023-06-01T00:48:10;11.97;;;5.23;;
72895;SDS011;61036;53.224;6.554;2023-06-01T00:50:36;12.80;;;5.13;;
72895;SDS011;61036;53.224;6.554;2023-06-01T00:53:02;13.00;;;5.10;;
72895;SDS011;61036;53.224;6.554;2023-06-01T00:55:32;14.27;;;5.10;;
72895;SDS011;61036;53.224;6.554;2023-06-01T00:57:58;12.47;;;6.13;;
72895;SDS011;61036;53.224;6.554;2023-06-01T01:00:24;12.50;;;5.50;;
72895;SDS011;61036;53.224;6.554;2023-06-01T01:02:52;14.53;;;5.97;;
72895;SDS011;61036;53.224;6.554;2023-06-01T01:05:18;13.53;;;6.03;;
72895;SDS011;61036;53.224;6.554;2023-06-01T01:15:55;12.50;;;6.00;;
72895;SDS011;61036;53.224;6.554;2023-06-01T01:18:57;15.27;;;5.90;;
72895;SDS011;61036;53.224;6.554;2023-06-01T01:21:36;10.63;;;5.87;;
72895;SDS011;61036;53.224;6.554;2023-06-01T01:26:56;11.03;;;5.80;;
72895;SDS011;61036;53.224;6.554;2023-06-01T01:29:27;11.87;;;5.53;;
72895;SDS011;61036;53.224;6.554;2023-06-01T01:31:55;11.63;;;4.97;;
72895;SDS011;61036;53.224;6.554;2023-06-01T01:34:22;12.30;;;5.57;;
72895;SDS011;61036;53.224;6.554;2023-06-01T01:36:52;13.83;;;6.00;;
72895;SDS011;61036;53.224;6.554;2023-06-01T01:39:18;14.37;;;5.43;;
72895;SDS011;61036;53.224;6.554;2023-06-01T01:41:44;8.70;;;5.50;;
72895;SDS011;61036;53.224;6.554;2023-06-01T01:44:10;10.87;;;5.27;;
72895;SDS011;61036;53.224;6.554;2023-06-01T01:49:44;10.60;;;4.60;;
72895;SDS011;61036;53.224;6.554;2023-06-01T01:52:24;10.00;;;4.83;;
72895;SDS011;61036;53.224;6.554;2023-06-01T01:54:55;10.30;;;5.43;;
72895;SDS011;61036;53.224;6.554;2023-06-01T01:57:22;8.90;;;4.93;;
72895;SDS011;61036;53.224;6.554;2023-06-01T01:59:49;7.60;;;4.20;;
72895;SDS011;61036;53.224;6.554;2023-06-01T02:02:16;10.63;;;5.00;;
72895;SDS011;61036;53.224;6.554;2023-06-01T02:04:43;9.80;;;5.00;;
72895;SDS011;61036;53.224;6.554;2023-06-01T02:07:11;10.43;;;4.30;;
72895;SDS011;61036;53.224;6.554;2023-06-01T02:09:38;8.03;;;4.30;;
72895;SDS011;61036;53.224;6.554;2023-06-01T02:12:05;10.27;;;4.63;;
72895;SDS011;61036;53.224;6.554;2023-06-01T02:14:33;9.00;;;4.10;;
72895;SDS011;61036;53.224;6.554;2023-06-01T02:16:59;7.83;;;3.90;;
72895;SDS011;61036;53.224;6.554;2023-06-01T02:19:28;8.20;;;3.80;;
72895;SDS011;61036;53.224;6.554;2023-06-01T02:21:53;8.23;;;4.47;;
72895;SDS011;61036;53.224;6.554;2023-06-01T02:24:19;8.57;;;3.93;;
72895;SDS011;61036;53.224;6.554;2023-06-01T02:26:47;8.87;;;3.53;;
72895;SDS011;61036;53.224;6.554;2023-06-01T02:29:17;9.40;;;3.90;;
72895;SDS011;61036;53.224;6.554;2023-06-01T02:31:44;9.90;;;3.77;;
72895;SDS011;61036;53.224;6.554;2023-06-01T02:34:10;8.50;;;4.13;;
72895;SDS011;61036;53.224;6.554;2023-06-01T02:36:36;10.30;;;3.80;;
72895;SDS011;61036;53.224;6.554;2023-06-01T02:39:02;8.60;;;3.73;;
72895;SDS011;61036;53.224;6.554;2023-06-01T02:41:28;7.33;;;4.03;;
72895;SDS011;61036;53.224;6.554;2023-06-01T02:43:53;11.80;;;4.50;;
72895;SDS011;61036;53.224;6.554;2023-06-01T02:46:19;10.03;;;3.77;;
72895;SDS011;61036;53.224;6.554;2023-06-01T02:48:45;7.27;;;3.80;;
72895;SDS011;61036;53.224;6.554;2023-06-01T02:51:11;8.03;;;3.90;;
72895;SDS011;61036;53.224;6.554;2023-06-01T02:53:41;9.77;;;4.00;;
72895;SDS011;61036;53.224;6.554;2023-06-01T02:56:09;8.97;;;4.60;;
72895;SDS011;61036;53.224;6.554;2023-06-01T02:58:45;8.17;;;3.83;;
72895;SDS011;61036;53.224;6.554;2023-06-01T03:01:19;9.80;;;4.83;;
72895;SDS011;61036;53.224;6.554;2023-06-01T03:03:46;12.60;;;4.77;;
72895;SDS011;61036;53.224;6.554;2023-06-01T03:06:12;11.20;;;4.73;;
72895;SDS011;61036;53.224;6.554;2023-06-01T03:09:06;11.17;;;4.43;;
72895;SDS011;61036;53.224;6.554;2023-06-01T03:12:00;11.43;;;4.80;;
72895;SDS011;61036;53.224;6.554;2023-06-01T03:14:27;9.80;;;4.80;;
72895;SDS011;61036;53.224;6.554;2023-06-01T03:16:53;12.23;;;4.90;;
72895;SDS011;61036;53.224;6.554;2023-06-01T03:19:20;14.27;;;5.40;;
72895;SDS011;61036;53.224;6.554;2023-06-01T03:21:50;11.53;;;5.23;;
72895;SDS011;61036;53.224;6.554;2023-06-01T03:24:19;11.67;;;5.20;;
72895;SDS011;61036;53.224;6.554;2023-06-01T03:26:45;10.77;;;5.17;;
72895;SDS011;61036;53.224;6.554;2023-06-01T03:29:11;13.63;;;5.13;;
72895;SDS011;61036;53.224;6.554;2023-06-01T03:31:36;13.30;;;5.87;;
72895;SDS011;61036;53.224;6.554;2023-06-01T03:34:02;9.60;;;4.87;;
72895;SDS011;61036;53.224;6.554;2023-06-01T03:36:28;10.43;;;4.77;;
72895;SDS011;61036;53.224;6.554;2023-06-01T03:38:54;9.83;;;4.53;;
72895;SDS011;61036;53.224;6.554;2023-06-01T03:41:22;10.80;;;4.50;;
72895;SDS011;61036;53.224;6.554;2023-06-01T03:43:48;11.40;;;5.50;;
72895;SDS011;61036;53.224;6.554;2023-06-01T03:46:14;9.60;;;5.37;;
72895;SDS011;61036;53.224;6.554;2023-06-01T03:48:40;13.17;;;5.73;;
72895;SDS011;61036;53.224;6.554;2023-06-01T03:51:07;8.77;;;4.97;;
72895;SDS011;61036;53.224;6.554;2023-06-01T03:53:33;8.50;;;4.93;;
72895;SDS011;61036;53.224;6.554;2023-06-01T03:55:59;14.20;;;6.03;;
72895;SDS011;61036;53.224;6.554;2023-06-01T03:58:44;9.33;;;5.50;;
72895;SDS011;61036;53.224;6.554;2023-06-01T04:01:11;11.13;;;5.20;;
72895;SDS011;61036;53.224;6.554;2023-06-01T04:03:41;13.73;;;5.67;;
72895;SDS011;61036;53.224;6.554;2023-06-01T04:06:10;10.27;;;5.83;;
72895;SDS011;61036;53.224;6.554;2023-06-01T04:08:43;12.03;;;6.10;;
72895;SDS011;61036;53.224;6.554;2023-06-01T04:11:14;10.20;;;5.70;;
72895;SDS011;61036;53.224;6.554;2023-06-01T04:13:41;16.17;;;5.90;;
72895;SDS011;61036;53.224;6.554;2023-06-01T04:16:09;11.43;;;5.00;;
72895;SDS011;61036;53.224;6.554;2023-06-01T04:18:35;9.37;;;4.97;;
72895;SDS011;61036;53.224;6.554;2023-06-01T04:21:00;11.03;;;5.33;;
72895;SDS011;61036;53.224;6.554;2023-06-01T04:23:26;15.37;;;5.93;;
72895;SDS011;61036;53.224;6.554;2023-06-01T04:25:52;11.47;;;4.87;;
72895;SDS011;61036;53.224;6.554;2023-06-01T04:28:28;9.13;;;4.33;;
72895;SDS011;61036;53.224;6.554;2023-06-01T04:30:55;9.47;;;4.87;;
72895;SDS011;61036;53.224;6.554;2023-06-01T04:33:22;11.13;;;5.10;;
72895;SDS011;61036;53.224;6.554;2023-06-01T04:35:51;9.37;;;4.27;;
72895;SDS011;61036;53.224;6.554;2023-06-01T04:38:22;10.17;;;4.97;;
72895;SDS011;61036;53.224;6.554;2023-06-01T04:40:50;8.77;;;3.83;;
72895;SDS011;61036;53.224;6.554;2023-06-01T04:43:19;10.23;;;4.10;;
72895;SDS011;61036;53.224;6.554;2023-06-01T04:45:45;14.23;;;4.67;;
72895;SDS011;61036;53.224;6.554;2023-06-01T04:48:12;9.03;;;4.33;;
72895;SDS011;61036;53.224;6.554;2023-06-01T04:50:56;9.97;;;3.57;;
72895;SDS011;61036;53.224;6.554;2023-06-01T04:53:22;7.23;;;3.60;;
72895;SDS011;61036;53.224;6.554;2023-06-01T04:55:48;10.40;;;4.40;;
72895;SDS011;61036;53.224;6.554;2023-06-01T04:58:15;9.03;;;4.33;;
72895;SDS011;61036;53.224;6.554;2023-06-01T05:00:43;12.40;;;4.53;;
72895;SDS011;61036;53.224;6.554;2023-06-01T05:03:10;9.00;;;4.27;;
72895;SDS011;61036;53.224;6.554;2023-06-01T05:05:37;8.23;;;3.90;;
72895;SDS011;61036;53.224;6.554;2023-06-01T05:08:03;10.43;;;5.00;;
72895;SDS011;61036;53.224;6.554;2023-06-01T05:10:29;9.30;;;4.37;;
72895;SDS011;61036;53.224;6.554;2023-06-01T05:12:55;9.03;;;4.77;;
72895;SDS011;61036;53.224;6.554;2023-06-01T05:15:21;9.93;;;4.27;;
72895;SDS011;61036;53.224;6.554;2023-06-01T05:17:47;10.10;;;4.87;;
72895;SDS011;61036;53.224;6.554;2023-06-01T05:20:17;7.27;;;4.33;;
72895;SDS011;61036;53.224;6.554;2023-06-01T05:22:48;10.73;;;5.30;;
72895;SDS011;61036;53.224;6.554;2023-06-01T05:25:14;11.23;;;5.27;;
72895;SDS011;61036;53.224;6.554;2023-06-01T05:27:40;10.10;;;4.67;;
72895;SDS011;61036;53.224;6.554;2023-06-01T05:30:06;8.00;;;4.17;;
72895;SDS011;61036;53.224;6.554;2023-06-01T05:32:32;11.03;;;5.23;;
72895;SDS011;61036;53.224;6.554;2023-06-01T05:35:09;9.63;;;4.67;;
72895;SDS011;61036;53.224;6.554;2023-06-01T05:37:36;8.73;;;4.57;;
72895;SDS011;61036;53.224;6.554;2023-06-01T05:40:02;9.30;;;4.33;;
72895;SDS011;61036;53.224;6.554;2023-06-01T05:42:29;10.27;;;4.30;;
72895;SDS011;61036;53.224;6.554;2023-06-01T05:44:55;8.43;;;4.67;;
72895;SDS011;61036;53.224;6.554;2023-06-01T05:47:21;8.20;;;3.57;;
72895;SDS011;61036;53.224;6.554;2023-06-01T05:49:47;7.60;;;4.00;;
72895;SDS011;61036;53.224;6.554;2023-06-01T05:52:13;9.83;;;4.13;;
72895;SDS011;61036;53.224;6.554;2023-06-01T05:54:39;7.63;;;3.67;;
72895;SDS011;61036;53.224;6.554;2023-06-01T05:57:05;9.40;;;3.83;;
72895;SDS011;61036;53.224;6.554;2023-06-01T05:59:32;7.50;;;4.30;;
72895;SDS011;61036;53.224;6.554;2023-06-01T06:01:58;8.20;;;3.43;;
72895;SDS011;61036;53.224;6.554;2023-06-01T06:04:24;6.23;;;3.60;;
72895;SDS011;61036;53.224;6.554;2023-06-01T06:06:49;7.60;;;3.67;;
72895;SDS011;61036;53.224;6.554;2023-06-01T06:09:15;9.07;;;4.53;;
72895;SDS011;61036;53.224;6.554;2023-06-01T06:11:41;8.57;;;4.27;;
72895;SDS011;61036;53.224;6.554;2023-06-01T06:14:07;10.13;;;3.73;;
72895;SDS011;61036;53.224;6.554;2023-06-01T06:16:32;7.27;;;4.17;;
72895;SDS011;61036;53.224;6.554;2023-06-01T06:18:58;6.13;;;3.23;;
72895;SDS011;61036;53.224;6.554;2023-06-01T06:21:23;5.73;;;2.53;;
72895;SDS011;61036;53.224;6.554;2023-06-01T06:23:49;5.57;;;2.57;;
72895;SDS011;61036;53.224;6.554;2023-06-01T06:26:15;5.70;;;2.73;;
72895;SDS011;61036;53.224;6.554;2023-06-01T06:28:40;7.70;;;2.53;;
72895;SDS011;61036;53.224;6.554;2023-06-01T06:31:06;5.23;;;2.50;;
72895;SDS011;61036;53.224;6.554;2023-06-01T06:33:32;4.30;;;2.10;;
72895;SDS011;61036;53.224;6.554;2023-06-01T06:35:57;6.83;;;2.50;;
72895;SDS011;61036;53.224;6.554;2023-06-01T06:38:23;5.10;;;2.13;;
72895;SDS011;61036;53.224;6.554;2023-06-01T06:40:48;5.67;;;2.27;;
72895;SDS011;61036;53.224;6.554;2023-06-01T06:43:14;6.07;;;2.77;;
72895;SDS011;61036;53.224;6.554;2023-06-01T06:45:41;5.73;;;2.57;;
72895;SDS011;61036;53.224;6.554;2023-06-01T06:48:06;6.60;;;2.70;;
72895;SDS011;61036;53.224;6.554;2023-06-01T06:50:32;5.83;;;2.47;;
72895;SDS011;61036;53.224;6.554;2023-06-01T06:52:57;6.23;;;2.53;;
72895;SDS011;61036;53.224;6.554;2023-06-01T06:55:24;5.23;;;2.93;;
72895;SDS011;61036;53.224;6.554;2023-06-01T06:57:52;7.93;;;2.70;;
72895;SDS011;61036;53.224;6.554;2023-06-01T07:00:17;6.77;;;2.83;;
72895;SDS011;61036;53.224;6.554;2023-06-01T07:02:45;5.93;;;2.60;;
72895;SDS011;61036;53.224;6.554;2023-06-01T07:05:12;6.10;;;2.27;;
72895;SDS011;61036;53.224;6.554;2023-06-01T07:07:38;5.43;;;2.60;;
72895;SDS011;61036;53.224;6.554;2023-06-01T07:10:05;5.10;;;2.70;;
72895;SDS011;61036;53.224;6.554;2023-06-01T07:12:32;7.53;;;3.00;;
72895;SDS011;61036;53.224;6.554;2023-06-01T07:14:59;8.33;;;2.73;;
72895;SDS011;61036;53.224;6.554;2023-06-01T07:17:24;6.70;;;3.10;;
72895;SDS011;61036;53.224;6.554;2023-06-01T07:19:50;7.30;;;3.30;;
72895;SDS011;61036;53.224;6.554;2023-06-01T07:22:16;7.97;;;3.17;;
72895;SDS011;61036;53.224;6.554;2023-06-01T07:24:42;6.90;;;2.93;;
72895;SDS011;61036;53.224;6.554;2023-06-01T07:27:09;6.00;;;2.77;;
72895;SDS011;61036;53.224;6.554;2023-06-01T07:29:35;7.60;;;3.17;;
72895;SDS011;61036;53.224;6.554;2023-06-01T07:32:01;4.10;;;2.40;;
72895;SDS011;61036;53.224;6.554;2023-06-01T07:34:27;6.43;;;3.03;;
72895;SDS011;61036;53.224;6.554;2023-06-01T07:36:53;11.50;;;4.00;;
72895;SDS011;61036;53.224;6.554;2023-06-01T07:39:24;6.40;;;3.13;;
72895;SDS011;61036;53.224;6.554;2023-06-01T07:41:50;9.03;;;3.40;;
72895;SDS011;61036;53.224;6.554;2023-06-01T07:44:18;6.77;;;2.93;;
72895;SDS011;61036;53.224;6.554;2023-06-01T07:46:45;5.97;;;3.00;;
72895;SDS011;61036;53.224;6.554;2023-06-01T07:49:12;7.47;;;3.03;;
72895;SDS011;61036;53.224;6.554;2023-06-01T07:51:41;6.37;;;2.90;;
72895;SDS011;61036;53.224;6.554;2023-06-01T07:54:08;7.43;;;2.70;;
72895;SDS011;61036;53.224;6.554;2023-06-01T07:56:33;7.27;;;2.30;;
72895;SDS011;61036;53.224;6.554;2023-06-01T07:58:59;4.30;;;2.07;;
72895;SDS011;61036;53.224;6.554;2023-06-01T08:01:25;5.17;;;2.20;;
72895;SDS011;61036;53.224;6.554;2023-06-01T08:03:51;3.53;;;1.63;;
72895;SDS011;61036;53.224;6.554;2023-06-01T08:06:17;6.90;;;2.10;;
72895;SDS011;61036;53.224;6.554;2023-06-01T08:08:43;4.97;;;2.17;;
72895;SDS011;61036;53.224;6.554;2023-06-01T08:11:11;5.70;;;1.90;;
72895;SDS011;61036;53.224;6.554;2023-06-01T08:13:36;5.43;;;2.47;;
72895;SDS011;61036;53.224;6.554;2023-06-01T08:16:03;5.97;;;2.77;;
72895;SDS011;61036;53.224;6.554;2023-06-01T08:18:29;8.60;;;3.43;;
72895;SDS011;61036;53.224;6.554;2023-06-01T08:20:55;8.73;;;3.27;;
72895;SDS011;61036;53.224;6.554;2023-06-01T08:23:21;7.87;;;3.17;;
72895;SDS011;61036;53.224;6.554;2023-06-01T08:25:49;15.87;;;4.37;;
72895;SDS011;61036;53.224;6.554;2023-06-01T08:28:15;15.67;;;4.40;;
72895;SDS011;61036;53.224;6.554;2023-06-01T08:30:41;10.67;;;3.33;;
72895;SDS011;61036;53.224;6.554;2023-06-01T08:33:07;8.20;;;3.90;;
72895;SDS011;61036;53.224;6.554;2023-06-01T08:35:32;9.73;;;4.17;;
72895;SDS011;61036;53.224;6.554;2023-06-01T08:38:02;12.83;;;4.13;;
72895;SDS011;61036;53.224;6.554;2023-06-01T08:40:29;11.10;;;3.83;;
72895;SDS011;61036;53.224;6.554;2023-06-01T08:45:28;11.30;;;4.13;;
72895;SDS011;61036;53.224;6.554;2023-06-01T08:47:55;9.00;;;4.10;;
72895;SDS011;61036;53.224;6.554;2023-06-01T08:50:23;8.80;;;3.60;;
72895;SDS011;61036;53.224;6.554;2023-06-01T08:52:52;11.37;;;4.57;;
72895;SDS011;61036;53.224;6.554;2023-06-01T08:55:24;8.13;;;3.53;;
72895;SDS011;61036;53.224;6.554;2023-06-01T08:57:50;10.33;;;3.90;;
72895;SDS011;61036;53.224;6.554;2023-06-01T09:00:18;10.00;;;3.67;;
72895;SDS011;61036;53.224;6.554;2023-06-01T09:02:45;12.57;;;4.07;;
72895;SDS011;61036;53.224;6.554;2023-06-01T09:05:11;7.87;;;3.00;;
72895;SDS011;61036;53.224;6.554;2023-06-01T09:07:38;7.07;;;2.83;;
72895;SDS011;61036;53.224;6.554;2023-06-01T09:10:04;9.77;;;3.10;;
72895;SDS011;61036;53.224;6.554;2023-06-01T09:12:31;10.70;;;3.23;;
72895;SDS011;61036;53.224;6.554;2023-06-01T09:15:16;11.90;;;3.50;;
72895;SDS011;61036;53.224;6.554;2023-06-01T09:17:43;8.47;;;2.87;;
72895;SDS011;61036;53.224;6.554;2023-06-01T09:20:13;17.47;;;3.97;;
72895;SDS011;61036;53.224;6.554;2023-06-01T09:22:54;9.03;;;3.00;;
72895;SDS011;61036;53.224;6.554;2023-06-01T09:25:29;8.50;;;2.70;;
72895;SDS011;61036;53.224;6.554;2023-06-01T09:27:57;6.47;;;2.83;;
72895;SDS011;61036;53.224;6.554;2023-06-01T09:30:48;10.07;;;3.50;;
72895;SDS011;61036;53.224;6.554;2023-06-01T09:33:16;7.30;;;2.67;;
72895;SDS011;61036;53.224;6.554;2023-06-01T09:35:48;9.80;;;3.27;;
72895;SDS011;61036;53.224;6.554;2023-06-01T09:38:22;8.70;;;3.20;;
72895;SDS011;61036;53.224;6.554;2023-06-01T09:41:02;11.37;;;3.70;;
72895;SDS011;61036;53.224;6.554;2023-06-01T09:43:38;11.50;;;4.10;;
72895;SDS011;61036;53.224;6.554;2023-06-01T09:46:09;18.73;;;3.97;;
72895;SDS011;61036;53.224;6.554;2023-06-01T09:48:41;8.33;;;2.90;;
72895;SDS011;61036;53.224;6.554;2023-06-01T09:51:20;8.33;;;2.97;;
72895;SDS011;61036;53.224;6.554;2023-06-01T09:53:56;11.03;;;3.03;;
72895;SDS011;61036;53.224;6.554;2023-06-01T09:56:22;7.63;;;3.13;;
72895;SDS011;61036;53.224;6.554;2023-06-01T09:58:50;11.67;;;3.07;;
72895;SDS011;61036;53.224;6.554;2023-06-01T10:01:22;9.87;;;2.53;;
72895;SDS011;61036;53.224;6.554;2023-06-01T10:03:48;10.73;;;3.13;;
72895;SDS011;61036;53.224;6.554;2023-06-01T10:06:18;8.10;;;3.00;;
72895;SDS011;61036;53.224;6.554;2023-06-01T10:08:44;8.53;;;3.20;;
72895;SDS011;61036;53.224;6.554;2023-06-01T10:11:12;11.77;;;3.47;;
72895;SDS011;61036;53.224;6.554;2023-06-01T10:13:38;8.53;;;3.33;;
72895;SDS011;61036;53.224;6.554;2023-06-01T10:16:05;8.30;;;3.40;;
72895;SDS011;61036;53.224;6.554;2023-06-01T10:18:32;9.10;;;3.53;;
72895;SDS011;61036;53.224;6.554;2023-06-01T10:20:57;12.47;;;3.20;;
72895;SDS011;61036;53.224;6.554;2023-06-01T10:23:24;8.47;;;3.10;;
72895;SDS011;61036;53.224;6.554;2023-06-01T10:25:51;10.70;;;3.40;;
72895;SDS011;61036;53.224;6.554;2023-06-01T10:28:17;9.20;;;3.67;;
72895;SDS011;61036;53.224;6.554;2023-06-01T10:30:44;9.67;;;3.27;;
72895;SDS011;61036;53.224;6.554;2023-06-01T10:33:11;7.07;;;2.87;;
72895;SDS011;61036;53.224;6.554;2023-06-01T10:40:34;7.70;;;2.97;;
72895;SDS011;61036;53.224;6.554;2023-06-01T10:43:03;8.07;;;2.90;;
72895;SDS011;61036;53.224;6.554;2023-06-01T10:48:01;9.87;;;3.03;;
72895;SDS011;61036;53.224;6.554;2023-06-01T10:50:28;6.37;;;3.03;;
72895;SDS011;61036;53.224;6.554;2023-06-01T10:52:55;7.53;;;3.00;;
72895;SDS011;61036;53.224;6.554;2023-06-01T10:55:22;8.33;;;3.07;;
72895;SDS011;61036;53.224;6.554;2023-06-01T10:57:49;9.20;;;3.00;;
72895;SDS011;61036;53.224;6.554;2023-06-01T11:02:57;8.63;;;3.03;;
72895;SDS011;61036;53.224;6.554;2023-06-01T11:08:03;4.87;;;2.43;;
72895;SDS011;61036;53.224;6.554;2023-06-01T11:13:37;8.90;;;2.43;;
72895;SDS011;61036;53.224;6.554;2023-06-01T11:23:43;8.63;;;2.70;;
72895;SDS011;61036;53.224;6.554;2023-06-01T11:26:12;9.57;;;2.93;;
72895;SDS011;61036;53.224;6.554;2023-06-01T11:28:41;9.37;;;2.83;;
72895;SDS011;61036;53.224;6.554;2023-06-01T11:31:11;8.43;;;2.70;;
72895;SDS011;61036;53.224;6.554;2023-06-01T11:33:38;9.53;;;3.10;;
72895;SDS011;61036;53.224;6.554;2023-06-01T11:36:05;9.00;;;3.17;;
72895;SDS011;61036;53.224;6.554;2023-06-01T11:38:37;9.30;;;3.10;;
72895;SDS011;61036;53.224;6.554;2023-06-01T11:41:04;9.57;;;3.13;;
72895;SDS011;61036;53.224;6.554;2023-06-01T11:43:31;9.80;;;3.03;;
72895;SDS011;61036;53.224;6.554;2023-06-01T11:48:30;9.63;;;3.60;;
72895;SDS011;61036;53.224;6.554;2023-06-01T11:50:56;7.30;;;3.00;;
72895;SDS011;61036;53.224;6.554;2023-06-01T11:53:26;10.93;;;3.50;;
72895;SDS011;61036;53.224;6.554;2023-06-01T11:55:53;9.47;;;4.17;;
72895;SDS011;61036;53.224;6.554;2023-06-01T11:58:23;8.60;;;3.57;;
72895;SDS011;61036;53.224;6.554;2023-06-01T12:00:48;8.07;;;3.73;;
72895;SDS011;61036;53.224;6.554;2023-06-01T12:03:14;18.33;;;5.37;;
72895;SDS011;61036;53.224;6.554;2023-06-01T12:05:42;11.97;;;3.70;;
72895;SDS011;61036;53.224;6.554;2023-06-01T12:08:14;7.03;;;3.47;;
72895;SDS011;61036;53.224;6.554;2023-06-01T12:10:44;7.93;;;3.30;;
72895;SDS011;61036;53.224;6.554;2023-06-01T12:13:12;8.53;;;2.93;;
72895;SDS011;61036;53.224;6.554;2023-06-01T12:15:39;5.93;;;2.70;;
72895;SDS011;61036;53.224;6.554;2023-06-01T12:18:05;9.20;;;3.30;;
72895;SDS011;61036;53.224;6.554;2023-06-01T12:20:38;9.83;;;3.63;;
72895;SDS011;61036;53.224;6.554;2023-06-01T12:23:13;8.03;;;3.70;;
72895;SDS011;61036;53.224;6.554;2023-06-01T12:25:56;10.37;;;3.77;;
72895;SDS011;61036;53.224;6.554;2023-06-01T12:28:25;9.73;;;3.30;;
72895;SDS011;61036;53.224;6.554;2023-06-01T12:31:12;11.37;;;3.47;;
72895;SDS011;61036;53.224;6.554;2023-06-01T12:33:41;11.37;;;3.70;;
72895;SDS011;61036;53.224;6.554;2023-06-01T12:36:09;6.07;;;2.93;;
72895;SDS011;61036;53.224;6.554;2023-06-01T12:38:50;7.53;;;3.23;;
72895;SDS011;61036;53.224;6.554;2023-06-01T12:41:16;11.20;;;4.40;;
72895;SDS011;61036;53.224;6.554;2023-06-01T12:43:46;11.90;;;4.43;;
72895;SDS011;61036;53.224;6.554;2023-06-01T12:48:47;11.63;;;4.17;;
72895;SDS011;61036;53.224;6.554;2023-06-01T12:51:14;12.20;;;4.20;;
72895;SDS011;61036;53.224;6.554;2023-06-01T12:53:41;11.63;;;4.50;;
72895;SDS011;61036;53.224;6.554;2023-06-01T12:56:07;11.27;;;3.90;;
72895;SDS011;61036;53.224;6.554;2023-06-01T12:58:34;10.13;;;3.80;;
72895;SDS011;61036;53.224;6.554;2023-06-01T13:01:00;10.43;;;3.57;;
72895;SDS011;61036;53.224;6.554;2023-06-01T13:03:26;14.37;;;4.57;;
72895;SDS011;61036;53.224;6.554;2023-06-01T13:05:53;13.70;;;4.03;;
72895;SDS011;61036;53.224;6.554;2023-06-01T13:08:19;10.33;;;4.07;;
72895;SDS011;61036;53.224;6.554;2023-06-01T13:10:45;14.00;;;4.00;;
72895;SDS011;61036;53.224;6.554;2023-06-01T13:13:11;11.83;;;4.10;;
72895;SDS011;61036;53.224;6.554;2023-06-01T13:15:43;13.90;;;5.03;;
72895;SDS011;61036;53.224;6.554;2023-06-01T13:18:10;9.83;;;3.30;;
72895;SDS011;61036;53.224;6.554;2023-06-01T13:20:36;13.03;;;3.70;;
72895;SDS011;61036;53.224;6.554;2023-06-01T13:23:04;10.23;;;3.67;;
72895;SDS011;61036;53.224;6.554;2023-06-01T13:25:30;8.50;;;2.90;;
72895;SDS011;61036;53.224;6.554;2023-06-01T13:27:58;10.07;;;3.57;;
72895;SDS011;61036;53.224;6.554;2023-06-01T13:30:25;7.57;;;3.20;;
72895;SDS011;61036;53.224;6.554;2023-06-01T13:32:52;7.93;;;3.27;;
72895;SDS011;61036;53.224;6.554;2023-06-01T13:35:18;9.17;;;3.90;;
72895;SDS011;61036;53.224;6.554;2023-06-01T13:37:45;7.43;;;2.40;;
72895;SDS011;61036;53.224;6.554;2023-06-01T13:40:10;8.27;;;2.47;;
72895;SDS011;61036;53.224;6.554;2023-06-01T13:42:36;7.80;;;2.83;;
72895;SDS011;61036;53.224;6.554;2023-06-01T13:45:02;8.57;;;3.50;;
72895;SDS011;61036;53.224;6.554;2023-06-01T13:47:28;9.43;;;3.20;;
72895;SDS011;61036;53.224;6.554;2023-06-01T13:49:54;10.60;;;3.13;;
72895;SDS011;61036;53.224;6.554;2023-06-01T13:52:20;9.17;;;3.40;;
72895;SDS011;61036;53.224;6.554;2023-06-01T13:54:45;8.50;;;2.80;;
72895;SDS011;61036;53.224;6.554;2023-06-01T13:57:12;9.07;;;2.80;;
72895;SDS011;61036;53.224;6.554;2023-06-01T13:59:38;8.27;;;3.33;;
72895;SDS011;61036;53.224;6.554;2023-06-01T14:02:03;5.23;;;2.30;;
72895;SDS011;61036;53.224;6.554;2023-06-01T14:04:30;8.33;;;2.80;;
72895;SDS011;61036;53.224;6.554;2023-06-01T14:06:56;4.57;;;2.30;;
72895;SDS011;61036;53.224;6.554;2023-06-01T14:09:22;8.43;;;2.70;;
72895;SDS011;61036;53.224;6.554;2023-06-01T14:11:48;10.63;;;2.70;;
72895;SDS011;61036;53.224;6.554;2023-06-01T14:14:15;7.73;;;2.60;;
72895;SDS011;61036;53.224;6.554;2023-06-01T14:16:41;6.23;;;2.37;;
72895;SDS011;61036;53.224;6.554;2023-06-01T14:19:06;8.23;;;2.43;;
72895;SDS011;61036;53.224;6.554;2023-06-01T14:21:32;6.67;;;2.17;;
72895;SDS011;61036;53.224;6.554;2023-06-01T14:23:59;7.23;;;2.20;;
72895;SDS011;61036;53.224;6.554;2023-06-01T14:26:26;6.20;;;2.10;;
72895;SDS011;61036;53.224;6.554;2023-06-01T14:28:53;4.53;;;1.97;;
72895;SDS011;61036;53.224;6.554;2023-06-01T14:31:19;9.07;;;2.40;;
72895;SDS011;61036;53.224;6.554;2023-06-01T14:33:47;7.23;;;2.40;;
72895;SDS011;61036;53.224;6.554;2023-06-01T14:36:14;5.43;;;2.53;;
72895;SDS011;61036;53.224;6.554;2023-06-01T14:38:39;7.20;;;2.07;;
72895;SDS011;61036;53.224;6.554;2023-06-01T14:41:06;5.60;;;2.10;;
72895;SDS011;61036;53.224;6.554;2023-06-01T14:43:32;6.73;;;2.13;;
72895;SDS011;61036;53.224;6.554;2023-06-01T14:45:58;4.90;;;1.97;;
72895;SDS011;61036;53.224;6.554;2023-06-01T14:48:24;4.60;;;2.20;;
72895;SDS011;61036;53.224;6.554;2023-06-01T14:50:50;9.20;;;2.33;;
72895;SDS011;61036;53.224;6.554;2023-06-01T14:53:16;4.33;;;2.07;;
72895;SDS011;61036;53.224;6.554;2023-06-01T14:55:42;5.73;;;2.13;;
72895;SDS011;61036;53.224;6.554;2023-06-01T14:58:08;6.07;;;2.10;;
72895;SDS011;61036;53.224;6.554;2023-06-01T15:00:34;5.93;;;2.73;;
72895;SDS011;61036;53.224;6.554;2023-06-01T15:03:02;6.27;;;1.87;;
72895;SDS011;61036;53.224;6.554;2023-06-01T15:05:28;5.03;;;2.30;;
72895;SDS011;61036;53.224;6.554;2023-06-01T15:07:54;5.37;;;2.00;;
72895;SDS011;61036;53.224;6.554;2023-06-01T15:10:20;7.97;;;2.13;;
72895;SDS011;61036;53.224;6.554;2023-06-01T15:12:45;4.60;;;1.50;;
72895;SDS011;61036;53.224;6.554;2023-06-01T15:15:11;6.27;;;1.80;;
72895;SDS011;61036;53.224;6.554;2023-06-01T15:17:37;5.77;;;1.87;;
72895;SDS011;61036;53.224;6.554;2023-06-01T15:20:04;6.13;;;1.97;;
72895;SDS011;61036;53.224;6.554;2023-06-01T15:22:31;3.20;;;1.63;;
72895;SDS011;61036;53.224;6.554;2023-06-01T15:24:57;5.03;;;1.77;;
72895;SDS011;61036;53.224;6.554;2023-06-01T15:27:22;8.53;;;2.00;;
72895;SDS011;61036;53.224;6.554;2023-06-01T15:29:49;7.50;;;1.60;;
72895;SDS011;61036;53.224;6.554;2023-06-01T15:32:14;4.57;;;1.77;;